Time;durP1;ratioP1;P1;durP2;ratioP2;P2;SDS_P1;SDS_P2;PMS_P1;PMS_P2;Temp;Humidity;BMP_temperature;BMP_pressure;BME280_temperature;BME280_humidity;BME280_pressure;Samples;Min_cycle;Max_cycle;Signal;HPM_P1;HPM_P2
2021/08/31 00:01:55;;;;;;;10.27;6.07;;;22.60;99.90;;;;;;5055350;28;20198;-74
2021/08/31 00:04:21;;;;;;;11.50;6.20;;;22.70;99.90;;;;;;5042076;28;20175;-74
2021/08/31 00:06:48;;;;;;;11.85;5.80;;;22.70;99.90;;;;;;5057733;28;20196;-74
2021/08/31 00:09:14;;;;;;;12.60;6.43;;;22.80;99.90;;;;;;5053169;28;20240;-75
2021/08/31 00:11:44;;;;;;;12.63;5.83;;;22.90;99.90;;;;;;5058766;28;20183;-73
2021/08/31 00:14:11;;;;;;;10.27;5.90;;;22.90;99.90;;;;;;5061325;28;20266;-72
2021/08/31 00:16:38;;;;;;;11.00;6.40;;;22.90;99.90;;;;;;5045106;28;20219;-74
2021/08/31 00:19:04;;;;;;;11.07;5.75;;;22.90;99.90;;;;;;5060372;28;20192;-73
2021/08/31 00:21:30;;;;;;;13.67;6.10;;;22.80;99.90;;;;;;5061546;28;20187;-73
2021/08/31 00:23:56;;;;;;;12.95;5.75;;;22.90;99.90;;;;;;5058027;28;20306;-74
2021/08/31 00:26:23;;;;;;;9.80;5.20;;;23.00;99.90;;;;;;5058923;28;20282;-74
2021/08/31 00:28:49;;;;;;;11.40;5.53;;;23.00;99.90;;;;;;5058421;28;20187;-74
2021/08/31 00:31:15;;;;;;;13.07;5.95;;;23.00;99.90;;;;;;5057786;28;20551;-73
2021/08/31 00:33:41;;;;;;;12.10;5.82;;;23.00;99.90;;;;;;5046914;28;20183;-74
2021/08/31 00:36:08;;;;;;;8.77;5.43;;;22.90;99.90;;;;;;5056755;28;20207;-73
2021/08/31 00:38:34;;;;;;;12.60;5.50;;;22.90;99.90;;;;;;5061524;28;20191;-74
2021/08/31 00:41:01;;;;;;;12.93;6.27;;;22.90;99.90;;;;;;5052354;28;20270;-74
2021/08/31 00:43:27;;;;;;;9.65;5.75;;;22.90;99.90;;;;;;5044196;28;20182;-75
2021/08/31 00:45:56;;;;;;;16.00;6.00;;;22.90;99.90;;;;;;5059182;28;20191;-74
2021/08/31 00:48:24;;;;;;;9.20;5.30;;;22.60;99.90;;;;;;5056544;28;20195;-73
2021/08/31 00:50:55;;;;;;;12.57;6.38;;;22.60;99.90;;;;;;5060849;28;20587;-75
2021/08/31 00:53:21;;;;;;;9.90;5.50;;;22.60;99.90;;;;;;5056990;28;20274;-73
2021/08/31 00:55:48;;;;;;;8.05;5.15;;;22.70;99.90;;;;;;5055489;28;20692;-72
2021/08/31 00:58:15;;;;;;;12.38;5.50;;;22.70;99.90;;;;;;5059817;28;20179;-74
2021/08/31 01:00:41;;;;;;;11.10;5.70;;;22.70;99.90;;;;;;5061854;28;20234;-74
2021/08/31 01:03:07;;;;;;;12.85;6.00;;;22.70;99.90;;;;;;5059168;28;20183;-73
2021/08/31 01:05:34;;;;;;;12.97;5.73;;;22.70;99.90;;;;;;5059701;28;20355;-73
2021/08/31 01:08:00;;;;;;;13.03;5.47;;;22.70;99.90;;;;;;5063343;28;20187;-75
2021/08/31 01:10:27;;;;;;;9.67;5.27;;;22.60;99.90;;;;;;5059613;28;20255;-74
2021/08/31 01:12:57;;;;;;;14.37;5.73;;;22.60;99.90;;;;;;5043410;28;20201;-73
2021/08/31 01:15:24;;;;;;;9.33;5.83;;;22.60;99.90;;;;;;5043088;28;20225;-73
2021/08/31 01:17:51;;;;;;;9.43;5.73;;;22.60;99.90;;;;;;5066493;28;20190;-74
2021/08/31 01:20:19;;;;;;;11.23;5.60;;;22.50;99.90;;;;;;5062311;28;20274;-74
2021/08/31 01:22:47;;;;;;;10.05;5.85;;;22.50;99.90;;;;;;5046579;28;20189;-73
2021/08/31 01:25:14;;;;;;;8.97;5.40;;;22.60;99.90;;;;;;5042984;28;20517;-75
2021/08/31 01:27:40;;;;;;;13.75;5.85;;;22.60;99.90;;;;;;5064509;28;20189;-74
2021/08/31 01:30:07;;;;;;;11.77;5.43;;;22.70;99.90;;;;;;5042850;28;20723;-76
2021/08/31 01:32:33;;;;;;;14.00;6.10;;;22.60;99.90;;;;;;5048258;28;20660;-77
2021/08/31 01:35:00;;;;;;;13.10;6.53;;;22.70;99.90;;;;;;5048463;28;20237;-76
2021/08/31 01:37:26;;;;;;;10.07;5.75;;;22.60;99.90;;;;;;5041737;28;20224;-74
2021/08/31 01:39:52;;;;;;;10.50;5.77;;;22.60;99.90;;;;;;5047765;28;20240;-73
2021/08/31 01:42:19;;;;;;;13.93;5.83;;;22.60;99.90;;;;;;5051493;28;20586;-76
2021/08/31 01:44:46;;;;;;;13.07;5.67;;;22.70;99.90;;;;;;5043851;28;20184;-75
2021/08/31 01:47:12;;;;;;;12.83;5.93;;;22.80;99.90;;;;;;5045996;28;20187;-75
2021/08/31 01:49:39;;;;;;;10.73;4.97;;;22.90;99.90;;;;;;5047329;28;20829;-75
2021/08/31 01:52:05;;;;;;;10.23;5.87;;;22.80;99.90;;;;;;5045170;28;21188;-74
2021/08/31 01:54:31;;;;;;;16.60;6.57;;;22.80;99.90;;;;;;5063928;28;20257;-74
2021/08/31 01:56:57;;;;;;;10.82;5.65;;;22.90;99.90;;;;;;5047125;28;20215;-75
2021/08/31 01:59:24;;;;;;;14.27;6.60;;;22.90;99.90;;;;;;5061662;28;20183;-74
2021/08/31 02:01:50;;;;;;;15.23;6.50;;;22.90;99.90;;;;;;5064334;28;20206;-76
2021/08/31 02:04:16;;;;;;;14.27;6.20;;;22.90;99.90;;;;;;5078539;28;20190;-74
2021/08/31 02:06:42;;;;;;;17.20;6.70;;;22.90;99.90;;;;;;5057080;28;20197;-75
2021/08/31 02:09:09;;;;;;;13.70;5.93;;;23.00;99.90;;;;;;5060127;28;20540;-74
2021/08/31 02:11:35;;;;;;;13.80;5.73;;;23.00;99.90;;;;;;5060564;28;20202;-74
2021/08/31 02:14:01;;;;;;;14.20;6.40;;;22.90;99.90;;;;;;5054449;28;20277;-74
2021/08/31 02:16:27;;;;;;;14.30;5.77;;;22.70;99.90;;;;;;5063484;28;20206;-74
2021/08/31 02:18:53;;;;;;;10.90;5.97;;;22.70;99.90;;;;;;5045097;28;20185;-75
2021/08/31 02:21:20;;;;;;;10.87;5.90;;;22.70;99.90;;;;;;5061729;28;20194;-73
2021/08/31 02:23:47;;;;;;;16.97;6.10;;;22.80;99.90;;;;;;5064949;28;20198;-74
2021/08/31 02:26:13;;;;;;;11.80;5.67;;;22.70;99.90;;;;;;5054366;28;20763;-73
2021/08/31 02:28:39;;;;;;;10.90;5.70;;;22.70;99.90;;;;;;5060119;28;20179;-74
2021/08/31 02:31:06;;;;;;;12.53;5.60;;;22.70;99.90;;;;;;5046155;28;20217;-76
2021/08/31 02:33:32;;;;;;;8.47;5.53;;;22.70;99.90;;;;;;5042349;28;20190;-74
2021/08/31 02:35:59;;;;;;;14.77;6.17;;;22.70;99.90;;;;;;5062464;28;20222;-73
2021/08/31 02:38:25;;;;;;;11.50;6.07;;;22.70;99.90;;;;;;5062193;28;20508;-74
2021/08/31 02:40:51;;;;;;;12.30;5.93;;;22.70;99.90;;;;;;5061976;28;20190;-73
2021/08/31 02:43:18;;;;;;;10.33;5.50;;;22.60;99.90;;;;;;5054660;28;21164;-75
2021/08/31 02:45:45;;;;;;;12.43;6.47;;;22.60;99.90;;;;;;5054011;28;20191;-72
2021/08/31 02:48:12;;;;;;;13.27;5.93;;;22.60;99.90;;;;;;5058236;28;20277;-73
2021/08/31 02:50:38;;;;;;;11.43;5.77;;;22.50;99.90;;;;;;5058878;28;20660;-74
2021/08/31 02:53:05;;;;;;;11.27;5.70;;;22.40;99.90;;;;;;5061527;28;20604;-74
2021/08/31 02:55:31;;;;;;;11.80;5.47;;;22.50;99.90;;;;;;5055182;28;20187;-73
2021/08/31 02:57:57;;;;;;;13.57;5.93;;;22.50;99.90;;;;;;5061128;28;20962;-73
2021/08/31 03:00:30;;;;;;;14.83;5.80;;;22.50;99.90;;;;;;5057613;28;20930;-72
2021/08/31 03:02:56;;;;;;;11.40;5.67;;;22.60;99.90;;;;;;5057539;28;20209;-72
2021/08/31 03:05:22;;;;;;;12.37;5.63;;;22.60;99.90;;;;;;5057809;28;20180;-72
2021/08/31 03:07:49;;;;;;;12.70;5.60;;;22.60;99.90;;;;;;5062049;28;20202;-74
2021/08/31 03:10:15;;;;;;;10.27;5.20;;;22.60;99.90;;;;;;5062723;28;20271;-72
2021/08/31 03:12:41;;;;;;;14.77;5.30;;;22.50;99.90;;;;;;5063870;28;20228;-71
2021/08/31 03:15:08;;;;;;;15.67;5.50;;;22.40;99.90;;;;;;5032402;28;20188;-73
2021/08/31 03:17:35;;;;;;;9.90;5.50;;;22.40;99.90;;;;;;5058898;28;20220;-72
2021/08/31 03:20:01;;;;;;;9.10;5.97;;;22.40;99.90;;;;;;5063775;28;20183;-73
2021/08/31 03:22:27;;;;;;;11.18;5.18;;;22.40;99.90;;;;;;5058288;28;20205;-74
2021/08/31 03:24:53;;;;;;;10.35;5.28;;;22.40;99.90;;;;;;5059766;28;20279;-74
2021/08/31 03:27:20;;;;;;;10.60;5.50;;;22.40;99.90;;;;;;5042248;28;20187;-73
2021/08/31 03:29:46;;;;;;;12.40;5.40;;;22.40;99.90;;;;;;5060336;28;20195;-72
2021/08/31 03:32:12;;;;;;;12.70;4.90;;;22.40;99.90;;;;;;5061888;28;20274;-75
2021/08/31 03:34:39;;;;;;;11.20;5.30;;;22.40;99.90;;;;;;5045155;28;20237;-77
2021/08/31 03:37:06;;;;;;;9.67;4.93;;;22.40;99.90;;;;;;5059470;28;20248;-73
2021/08/31 03:39:34;;;;;;;13.67;5.77;;;22.40;99.90;;;;;;5077425;28;20234;-75
2021/08/31 03:42:00;;;;;;;12.27;5.30;;;22.50;99.90;;;;;;5063034;28;20194;-74
2021/08/31 03:44:27;;;;;;;14.10;5.27;;;22.40;99.90;;;;;;5059492;28;20195;-73
2021/08/31 03:46:53;;;;;;;9.80;5.07;;;22.40;99.90;;;;;;5040524;28;20232;-75
2021/08/31 03:49:19;;;;;;;9.27;5.00;;;22.40;99.90;;;;;;5061642;28;20195;-73
2021/08/31 03:51:45;;;;;;;8.97;5.43;;;22.40;99.90;;;;;;5045285;28;20211;-73
2021/08/31 03:54:12;;;;;;;10.77;5.10;;;22.40;99.90;;;;;;5063386;28;20282;-72
2021/08/31 03:56:38;;;;;;;7.97;5.03;;;22.40;99.90;;;;;;5061588;28;20289;-73
2021/08/31 03:59:05;;;;;;;7.97;4.67;;;22.50;99.90;;;;;;5060517;28;20715;-73
2021/08/31 04:01:31;;;;;;;9.43;4.63;;;22.50;99.90;;;;;;5063447;28;20847;-73
2021/08/31 04:03:58;;;;;;;6.87;4.80;;;22.50;99.90;;;;;;5061749;28;21097;-74
2021/08/31 04:06:24;;;;;;;9.57;4.80;;;22.50;99.90;;;;;;5058530;28;20191;-72
2021/08/31 04:08:50;;;;;;;8.00;4.80;;;22.60;99.90;;;;;;5057827;28;20248;-74
2021/08/31 04:11:16;;;;;;;12.17;5.17;;;22.60;99.90;;;;;;5059348;28;20230;-72
2021/08/31 04:13:43;;;;;;;7.83;4.83;;;22.60;99.90;;;;;;5042894;28;20251;-72
2021/08/31 04:16:09;;;;;;;11.10;5.00;;;22.60;99.90;;;;;;5056126;28;20211;-73
2021/08/31 04:18:35;;;;;;;12.47;5.77;;;22.70;99.90;;;;;;5055350;28;20179;-71
2021/08/31 04:21:01;;;;;;;10.30;4.77;;;22.70;99.90;;;;;;5061752;28;20191;-74
2021/08/31 04:23:28;;;;;;;10.37;5.53;;;22.70;99.90;;;;;;5060330;28;20210;-75
2021/08/31 04:25:54;;;;;;;9.32;4.68;;;22.70;99.90;;;;;;5057495;28;20191;-72
2021/08/31 04:28:20;;;;;;;10.00;4.77;;;22.70;99.90;;;;;;5078390;28;20248;-73
2021/08/31 04:30:47;;;;;;;7.28;4.60;;;22.70;99.90;;;;;;5064007;28;20483;-73
2021/08/31 04:33:13;;;;;;;9.33;4.97;;;22.60;99.90;;;;;;5057622;28;20195;-72
2021/08/31 04:35:40;;;;;;;13.50;5.43;;;22.70;99.90;;;;;;5042826;28;20182;-71
2021/08/31 04:38:06;;;;;;;12.60;5.50;;;22.60;99.90;;;;;;5062344;28;20191;-75
2021/08/31 04:40:32;;;;;;;11.97;5.20;;;22.60;99.90;;;;;;5057240;28;20222;-74
2021/08/31 04:42:59;;;;;;;10.53;5.60;;;22.60;99.90;;;;;;5045655;28;20598;-74
2021/08/31 04:45:25;;;;;;;10.75;5.13;;;22.70;99.90;;;;;;5042543;28;20306;-75
2021/08/31 04:47:51;;;;;;;13.73;5.07;;;22.80;99.90;;;;;;5047537;28;20617;-74
2021/08/31 04:50:18;;;;;;;12.13;4.80;;;22.80;99.90;;;;;;5058642;28;20199;-73
2021/08/31 04:52:46;;;;;;;16.17;6.07;;;22.90;99.90;;;;;;5062361;28;20203;-72
2021/08/31 04:55:12;;;;;;;14.33;5.23;;;23.00;99.90;;;;;;5057871;28;20266;-74
2021/08/31 04:57:38;;;;;;;10.95;4.90;;;23.00;99.90;;;;;;5042070;28;20213;-73
2021/08/31 05:00:06;;;;;;;15.35;5.07;;;23.10;99.90;;;;;;5059519;28;20262;-73
2021/08/31 05:02:35;;;;;;;9.67;4.83;;;23.20;99.90;;;;;;5046646;28;20190;-77
2021/08/31 05:05:01;;;;;;;12.40;5.05;;;23.20;99.90;;;;;;5062060;28;20187;-74
2021/08/31 05:07:28;;;;;;;14.10;4.82;;;23.30;99.90;;;;;;5061047;28;20273;-74
2021/08/31 05:09:54;;;;;;;11.75;4.80;;;23.40;99.90;;;;;;5060529;28;20273;-73
2021/08/31 05:12:20;;;;;;;13.73;5.23;;;23.40;99.90;;;;;;5059508;28;20604;-73
2021/08/31 05:14:47;;;;;;;10.23;5.83;;;23.40;99.90;;;;;;5043433;28;20217;-73
2021/08/31 05:17:14;;;;;;;12.80;5.00;;;23.40;99.90;;;;;;5054976;28;20226;-73
2021/08/31 05:19:42;;;;;;;11.35;4.05;;;23.40;99.90;;;;;;5053659;28;20228;-74
2021/08/31 05:22:10;;;;;;;16.75;5.20;;;23.50;99.90;;;;;;5044315;28;20234;-73
2021/08/31 05:24:38;;;;;;;16.40;5.50;;;23.50;99.90;;;;;;5043054;28;20191;-74
2021/08/31 05:27:06;;;;;;;11.70;4.68;;;23.60;99.90;;;;;;5061042;28;20221;-73
2021/08/31 05:29:33;;;;;;;13.77;5.17;;;23.60;99.90;;;;;;5064758;28;20186;-74
2021/08/31 05:32:00;;;;;;;14.95;5.30;;;23.70;99.90;;;;;;5062478;28;20244;-74
2021/08/31 05:34:26;;;;;;;13.43;5.50;;;23.70;99.90;;;;;;5060005;28;20194;-75
2021/08/31 05:36:53;;;;;;;12.60;5.38;;;23.80;99.90;;;;;;5059197;28;20203;-74
2021/08/31 05:39:19;;;;;;;16.97;5.60;;;23.90;99.90;;;;;;5058665;28;20182;-74
2021/08/31 05:41:46;;;;;;;11.95;5.38;;;23.90;99.90;;;;;;5046492;28;20208;-74
2021/08/31 05:44:12;;;;;;;13.23;5.15;;;23.90;99.90;;;;;;5059949;28;20679;-75
2021/08/31 05:46:40;;;;;;;11.88;4.95;;;24.00;99.90;;;;;;5059434;28;20179;-74
2021/08/31 05:49:06;;;;;;;13.00;5.30;;;24.00;99.90;;;;;;5049906;28;20222;-74
2021/08/31 05:51:32;;;;;;;10.88;5.57;;;24.00;99.90;;;;;;5045434;28;20233;-73
2021/08/31 05:53:59;;;;;;;9.23;4.55;;;24.10;99.90;;;;;;5060837;28;20202;-73
2021/08/31 05:56:25;;;;;;;10.82;5.63;;;24.10;99.90;;;;;;5062039;28;20603;-76
2021/08/31 05:58:51;;;;;;;14.20;4.93;;;24.20;99.90;;;;;;5047762;28;20451;-75
2021/08/31 06:01:18;;;;;;;10.52;5.03;;;24.20;99.90;;;;;;5043410;28;20278;-76
2021/08/31 06:03:47;;;;;;;17.42;5.30;;;24.30;99.90;;;;;;5046979;28;20197;-74
2021/08/31 06:06:16;;;;;;;14.93;5.72;;;24.40;99.90;;;;;;5060337;28;20271;-74
2021/08/31 06:08:43;;;;;;;16.20;5.50;;;24.40;99.90;;;;;;5043549;28;20194;-75
2021/08/31 06:11:10;;;;;;;13.63;5.43;;;24.40;99.90;;;;;;5059086;28;20195;-74
2021/08/31 06:13:38;;;;;;;14.10;5.07;;;24.50;99.90;;;;;;5049206;28;20921;-75
2021/08/31 06:16:04;;;;;;;11.13;4.30;;;24.50;99.90;;;;;;5061746;28;20546;-75
2021/08/31 06:18:34;;;;;;;13.73;5.03;;;24.50;99.90;;;;;;5063117;28;20194;-78
2021/08/31 06:21:01;;;;;;;12.18;4.55;;;24.60;99.90;;;;;;5054444;28;20312;-75
2021/08/31 06:23:28;;;;;;;9.13;4.82;;;24.60;99.90;;;;;;5063119;28;20195;-73
2021/08/31 06:25:54;;;;;;;9.73;4.38;;;24.70;99.90;;;;;;5047025;28;20186;-74
2021/08/31 06:28:21;;;;;;;11.75;4.88;;;24.70;99.90;;;;;;5047289;28;20234;-74
2021/08/31 06:30:47;;;;;;;15.05;4.50;;;24.80;99.90;;;;;;5060417;28;20230;-75
2021/08/31 06:33:14;;;;;;;12.13;4.78;;;24.90;99.90;;;;;;5060698;28;20191;-74
2021/08/31 06:35:40;;;;;;;14.88;4.40;;;24.90;99.90;;;;;;5061960;28;20205;-73
2021/08/31 06:38:06;;;;;;;10.85;5.15;;;24.90;99.90;;;;;;5061141;28;20669;-74
2021/08/31 06:40:33;;;;;;;8.55;4.18;;;24.90;99.90;;;;;;5063947;28;20744;-74
2021/08/31 06:42:59;;;;;;;8.82;4.60;;;24.90;99.90;;;;;;5065695;28;20843;-75
2021/08/31 06:45:26;;;;;;;13.35;4.85;;;24.90;99.90;;;;;;5065999;28;20216;-75
2021/08/31 06:47:53;;;;;;;10.88;4.30;;;25.00;99.90;;;;;;5064187;28;20548;-74
2021/08/31 06:50:19;;;;;;;9.70;4.13;;;25.10;99.90;;;;;;5059211;28;20198;-76
2021/08/31 06:52:48;;;;;;;14.93;4.47;;;25.20;99.90;;;;;;5059037;28;20210;-73
2021/08/31 06:55:15;;;;;;;8.30;4.40;;;25.20;99.90;;;;;;5047403;28;20198;-73
2021/08/31 06:57:42;;;;;;;9.20;3.97;;;25.10;99.90;;;;;;5062670;28;20215;-76
2021/08/31 07:00:10;;;;;;;12.82;4.13;;;25.10;99.90;;;;;;5061653;28;20524;-74
2021/08/31 07:02:36;;;;;;;7.05;3.03;;;25.20;99.90;;;;;;5064850;28;20187;-74
2021/08/31 07:05:04;;;;;;;12.90;4.35;;;25.30;99.90;;;;;;5057258;28;20639;-73
2021/08/31 07:07:36;;;;;;;10.23;3.80;;;25.40;99.90;;;;;;5060659;28;20198;-74
2021/08/31 07:10:04;;;;;;;7.70;3.83;;;25.40;99.90;;;;;;5063764;28;20191;-74
2021/08/31 07:12:31;;;;;;;12.48;4.25;;;25.50;99.90;;;;;;5062140;28;20187;-74
2021/08/31 07:14:58;;;;;;;7.93;3.70;;;25.50;99.90;;;;;;5062615;28;20239;-73
2021/08/31 07:17:25;;;;;;;12.98;3.95;;;25.60;99.90;;;;;;5060342;28;20272;-73
2021/08/31 07:19:52;;;;;;;8.85;4.18;;;25.70;99.90;;;;;;5055607;28;20648;-74
2021/08/31 07:22:20;;;;;;;10.63;3.80;;;25.80;99.90;;;;;;5034580;28;20318;-73
2021/08/31 07:24:46;;;;;;;8.52;4.07;;;25.80;99.90;;;;;;5060188;28;20193;-73
2021/08/31 07:27:15;;;;;;;11.32;3.67;;;25.80;99.90;;;;;;5072467;28;20183;-75
2021/08/31 07:29:41;;;;;;;11.38;4.32;;;25.80;99.90;;;;;;5063875;28;20197;-74
2021/08/31 07:32:09;;;;;;;12.73;4.20;;;25.90;99.90;;;;;;5058988;28;20183;-73
2021/08/31 07:34:38;;;;;;;14.05;4.72;;;26.00;99.90;;;;;;5058797;28;20210;-74
2021/08/31 07:37:06;;;;;;;10.40;4.40;;;26.20;99.90;;;;;;5059713;28;20687;-76
2021/08/31 07:39:33;;;;;;;7.63;4.13;;;26.20;99.90;;;;;;5059210;28;20192;-74
2021/08/31 07:42:00;;;;;;;8.30;4.32;;;26.00;99.90;;;;;;5044045;28;20187;-74
2021/08/31 07:44:27;;;;;;;16.67;4.55;;;26.30;99.90;;;;;;5060442;28;20183;-72
2021/08/31 07:46:53;;;;;;;5.32;3.67;;;26.30;99.90;;;;;;5059910;28;20202;-74
2021/08/31 07:49:20;;;;;;;10.52;4.07;;;26.40;99.90;;;;;;5059663;28;20679;-76
2021/08/31 07:51:47;;;;;;;12.55;4.50;;;26.40;99.90;;;;;;5042077;28;20237;-74
2021/08/31 07:54:14;;;;;;;13.18;4.13;;;26.50;99.90;;;;;;5054687;28;20203;-75
2021/08/31 07:56:41;;;;;;;7.68;3.95;;;26.40;99.90;;;;;;5057072;28;20260;-74
2021/08/31 07:59:09;;;;;;;14.60;4.32;;;26.50;99.90;;;;;;5058051;28;20191;-74
2021/08/31 08:01:36;;;;;;;13.18;4.30;;;26.70;99.90;;;;;;5061183;28;20812;-73
2021/08/31 08:04:03;;;;;;;10.63;4.20;;;27.10;99.90;;;;;;5062116;28;20201;-73
2021/08/31 08:06:29;;;;;;;9.90;4.22;;;27.10;99.90;;;;;;5060396;28;20648;-73
2021/08/31 08:08:57;;;;;;;10.38;4.25;;;26.90;99.90;;;;;;5057499;28;20268;-73
2021/08/31 08:11:25;;;;;;;8.05;3.70;;;27.20;99.90;;;;;;5061409;28;20273;-74
2021/08/31 08:13:51;;;;;;;14.32;4.68;;;27.40;99.90;;;;;;5061664;28;20743;-73
2021/08/31 08:16:20;;;;;;;12.90;4.57;;;27.70;99.90;;;;;;5043551;28;20211;-74
2021/08/31 08:18:48;;;;;;;9.20;4.53;;;27.70;99.90;;;;;;5061047;28;20767;-74
2021/08/31 08:21:15;;;;;;;18.77;4.43;;;27.90;99.90;;;;;;5041790;28;20183;-75
2021/08/31 08:23:42;;;;;;;15.43;4.32;;;27.80;99.90;;;;;;5030332;28;20240;-74
2021/08/31 08:26:10;;;;;;;16.98;4.63;;;27.90;99.90;;;;;;5053830;28;20187;-75
2021/08/31 08:28:38;;;;;;;17.73;4.45;;;27.80;99.90;;;;;;5060532;28;20190;-72
2021/08/31 08:31:06;;;;;;;14.85;4.60;;;28.00;99.90;;;;;;5045928;28;20611;-72
2021/08/31 08:33:33;;;;;;;17.13;5.22;;;28.10;99.90;;;;;;5044331;28;20213;-75
2021/08/31 08:36:03;;;;;;;12.60;5.07;;;28.30;99.90;;;;;;5056027;28;20269;-74
2021/08/31 08:38:29;;;;;;;14.77;5.07;;;28.50;99.90;;;;;;5062749;28;20178;-74
2021/08/31 08:41:05;;;;;;;13.43;4.95;;;28.70;99.90;;;;;;5060162;28;20633;-73
2021/08/31 08:43:36;;;;;;;13.02;4.25;;;29.00;99.90;;;;;;5056891;28;20186;-74
2021/08/31 08:46:07;;;;;;;15.30;5.22;;;29.30;99.90;;;;;;5057477;28;20194;-73
2021/08/31 08:48:34;;;;;;;12.38;4.65;;;29.30;99.90;;;;;;5063734;28;20216;-73
2021/08/31 08:51:05;;;;;;;13.77;4.60;;;29.10;99.90;;;;;;5056766;28;20278;-74
2021/08/31 08:53:34;;;;;;;10.25;4.50;;;29.00;99.90;;;;;;5073764;28;20187;-75
2021/08/31 08:56:02;;;;;;;17.58;4.40;;;28.80;99.90;;;;;;5052573;28;20302;-75
2021/08/31 08:58:32;;;;;;;10.48;4.35;;;29.10;99.90;;;;;;5044267;28;20433;-75
2021/08/31 09:01:11;;;;;;;12.15;4.35;;;29.10;99.90;;;;;;5058093;28;20281;-74
2021/08/31 09:03:43;;;;;;;10.63;4.72;;;29.30;99.90;;;;;;5058873;28;20226;-73
2021/08/31 09:06:11;;;;;;;10.63;4.80;;;28.90;99.90;;;;;;5074508;28;20187;-75
2021/08/31 09:08:59;;;;;;;20.63;5.60;;;29.20;99.90;;;;;;5058722;28;20197;-74
2021/08/31 09:11:38;;;;;;;13.07;4.70;;;29.40;99.90;;;;;;5036652;28;20739;-73
2021/08/31 09:14:28;;;;;;;13.65;4.75;;;29.50;99.90;;;;;;5043370;28;20187;-73
2021/08/31 09:17:07;;;;;;;11.57;4.93;;;29.30;99.90;;;;;;5041795;28;20326;-74
2021/08/31 09:19:43;;;;;;;18.20;5.55;;;29.20;99.90;;;;;;5042163;28;20214;-74
2021/08/31 09:22:18;;;;;;;12.48;4.82;;;29.20;99.90;;;;;;5055540;28;20248;-74
2021/08/31 09:25:09;;;;;;;13.55;4.85;;;29.00;99.90;;;;;;5041274;28;20190;-74
2021/08/31 09:27:42;;;;;;;10.95;4.35;;;28.70;99.90;;;;;;5058666;28;20209;-75
2021/08/31 09:30:21;;;;;;;10.07;4.20;;;28.40;99.90;;;;;;5058792;28;20194;-75
2021/08/31 09:33:12;;;;;;;11.50;4.70;;;28.40;99.90;;;;;;5057416;28;20179;-72
2021/08/31 09:35:45;;;;;;;9.77;4.50;;;28.40;99.90;;;;;;5062955;28;20210;-73
2021/08/31 09:38:18;;;;;;;21.00;5.70;;;28.20;99.90;;;;;;5059503;28;20266;-72
2021/08/31 09:40:52;;;;;;;12.90;4.57;;;28.30;99.90;;;;;;5063163;28;20781;-72
2021/08/31 09:43:25;;;;;;;11.98;4.88;;;28.50;99.90;;;;;;5061660;28;20191;-75
2021/08/31 09:45:56;;;;;;;11.63;5.10;;;28.70;99.90;;;;;;5061607;28;20206;-73
2021/08/31 09:48:23;;;;;;;15.73;4.90;;;28.90;99.90;;;;;;5044925;28;20189;-75
2021/08/31 09:50:58;;;;;;;14.13;5.05;;;29.20;99.90;;;;;;5044260;28;20257;-73
2021/08/31 09:53:30;;;;;;;12.80;5.15;;;29.60;99.90;;;;;;5041771;28;20186;-74
2021/08/31 09:56:12;;;;;;;10.85;4.43;;;29.70;99.90;;;;;;5038581;28;20195;-72
2021/08/31 09:58:42;;;;;;;11.90;4.47;;;30.30;99.90;;;;;;5058053;28;20252;-73
2021/08/31 10:01:09;;;;;;;11.82;4.43;;;30.40;99.90;;;;;;5060111;28;20197;-73
2021/08/31 10:03:39;;;;;;;14.00;4.55;;;30.80;99.90;;;;;;5046008;28;20180;-73
2021/08/31 10:06:06;;;;;;;13.18;4.53;;;31.10;99.90;;;;;;5059598;28;20190;-74
2021/08/31 10:08:41;;;;;;;13.63;4.40;;;31.30;99.90;;;;;;5061184;28;20198;-74
2021/08/31 10:11:08;;;;;;;22.70;5.32;;;31.00;99.90;;;;;;5062323;28;20198;-73
2021/08/31 10:13:40;;;;;;;17.00;4.65;;;31.40;99.90;;;;;;5060963;28;20179;-73
2021/08/31 10:16:09;;;;;;;15.13;4.32;;;33.60;99.90;;;;;;5058155;28;20211;-74
2021/08/31 10:18:36;;;;;;;12.70;4.57;;;35.10;99.90;;;;;;5082150;28;20865;-75
2021/08/31 10:21:11;;;;;;;11.70;4.55;;;36.50;99.90;;;;;;5045515;28;20599;-74
2021/08/31 10:23:49;;;;;;;17.08;4.30;;;36.30;99.90;;;;;;5062265;28;20191;-73
2021/08/31 10:26:37;;;;;;;10.25;4.40;;;35.50;99.10;;;;;;5060251;28;20226;-75
2021/08/31 10:29:16;;;;;;;12.95;4.63;;;33.90;99.90;;;;;;5055171;28;20186;-74
2021/08/31 10:31:46;;;;;;;15.82;4.05;;;33.30;99.90;;;;;;5049711;28;20190;-74
2021/08/31 10:34:31;;;;;;;14.35;4.75;;;32.80;99.90;;;;;;5045237;28;20305;-74
2021/08/31 10:37:09;;;;;;;9.98;4.28;;;33.00;99.90;;;;;;5056136;28;21011;-73
2021/08/31 10:39:59;;;;;;;13.40;4.32;;;33.80;99.90;;;;;;5076814;28;20698;-73
2021/08/31 10:42:28;;;;;;;21.52;4.85;;;36.20;98.00;;;;;;5054547;28;20325;-73
2021/08/31 10:45:26;;;;;;;8.32;4.20;;;36.70;97.60;;;;;;5061731;28;20179;-73
2021/08/31 10:47:52;;;;;;;12.18;4.70;;;34.70;99.90;;;;;;5045454;28;20194;-73
2021/08/31 10:50:25;;;;;;;15.23;5.18;;;33.10;99.90;;;;;;5045431;28;20222;-73
2021/08/31 10:53:02;;;;;;;14.43;5.07;;;32.60;99.90;;;;;;5061950;28;20199;-72
2021/08/31 10:55:28;;;;;;;12.40;4.70;;;32.10;99.90;;;;;;5046334;28;20186;-73
2021/08/31 10:58:01;;;;;;;11.02;4.20;;;31.90;99.90;;;;;;5060481;28;20286;-76
2021/08/31 11:00:28;;;;;;;21.92;5.00;;;31.80;99.90;;;;;;5041241;28;20504;-73
2021/08/31 11:03:02;;;;;;;11.85;4.88;;;31.50;99.90;;;;;;5057501;28;20207;-75
2021/08/31 11:05:33;;;;;;;12.90;4.53;;;31.40;99.90;;;;;;5056439;28;20199;-74
2021/08/31 11:08:00;;;;;;;13.95;5.20;;;31.30;99.90;;;;;;5039580;28;20187;-74
2021/08/31 11:10:36;;;;;;;14.38;4.63;;;31.10;99.90;;;;;;5063096;28;20543;-74
2021/08/31 11:13:16;;;;;;;14.95;5.22;;;31.10;99.90;;;;;;5062839;28;20182;-73
2021/08/31 11:15:44;;;;;;;12.63;5.28;;;31.20;99.90;;;;;;5057528;28;20604;-75
2021/08/31 11:18:14;;;;;;;9.40;4.35;;;31.10;99.90;;;;;;5058155;28;20270;-73
2021/08/31 11:20:46;;;;;;;11.07;4.28;;;31.20;99.90;;;;;;5046123;28;20190;-73
2021/08/31 11:23:19;;;;;;;16.08;4.60;;;30.90;99.90;;;;;;5059180;28;20252;-74
2021/08/31 11:25:55;;;;;;;14.98;5.10;;;30.70;99.90;;;;;;5059936;28;20190;-73
2021/08/31 11:28:28;;;;;;;15.02;4.60;;;30.80;99.90;;;;;;5057430;28;20185;-74
2021/08/31 11:31:15;;;;;;;14.25;4.32;;;31.10;99.90;;;;;;5053312;28;20183;-76
2021/08/31 11:33:46;;;;;;;15.05;4.80;;;31.20;99.90;;;;;;5064130;28;20183;-73
2021/08/31 11:36:16;;;;;;;16.75;4.68;;;31.00;99.90;;;;;;5056728;28;20246;-72
2021/08/31 11:38:53;;;;;;;13.38;4.38;;;31.30;99.90;;;;;;5061814;28;20209;-75
2021/08/31 11:41:42;;;;;;;13.68;4.60;;;30.90;99.90;;;;;;5076157;28;20216;-73
2021/08/31 11:44:17;;;;;;;16.73;4.60;;;31.40;99.90;;;;;;5059232;28;20192;-73
2021/08/31 11:46:56;;;;;;;9.98;4.38;;;31.30;99.90;;;;;;5062119;28;20197;-74
2021/08/31 11:49:31;;;;;;;13.50;4.70;;;31.50;99.90;;;;;;5062465;28;20190;-73
2021/08/31 11:52:19;;;;;;;12.32;4.20;;;31.40;99.90;;;;;;5058033;28;20206;-73
2021/08/31 11:54:56;;;;;;;10.55;4.20;;;31.70;99.90;;;;;;5044571;28;20187;-72
2021/08/31 11:57:33;;;;;;;12.07;4.30;;;31.80;99.90;;;;;;5056384;28;20203;-74
2021/08/31 12:00:00;;;;;;;9.93;4.20;;;31.50;99.90;;;;;;5053125;28;20187;-74
2021/08/31 12:02:30;;;;;;;11.45;4.60;;;31.50;99.90;;;;;;5056948;28;20696;-73
2021/08/31 12:04:59;;;;;;;16.58;4.43;;;31.50;99.90;;;;;;5062653;28;20214;-73
2021/08/31 12:07:43;;;;;;;16.27;4.97;;;31.60;99.90;;;;;;5059242;28;20194;-76
2021/08/31 12:10:13;;;;;;;14.32;4.43;;;31.50;99.90;;;;;;5056496;28;20190;-74
2021/08/31 12:12:45;;;;;;;19.50;4.90;;;31.60;99.90;;;;;;5040178;28;20797;-74
2021/08/31 12:15:12;;;;;;;13.05;4.55;;;31.60;99.90;;;;;;5046200;28;20187;-74
2021/08/31 12:17:45;;;;;;;10.88;4.18;;;31.60;99.90;;;;;;5060399;28;20560;-73
2021/08/31 12:20:17;;;;;;;9.65;4.55;;;31.50;99.90;;;;;;5059525;28;20211;-73
2021/08/31 12:22:50;;;;;;;12.25;4.78;;;31.40;99.90;;;;;;5055531;28;20197;-73
2021/08/31 12:25:19;;;;;;;10.25;4.00;;;31.40;99.90;;;;;;5057169;28;20183;-72
2021/08/31 12:27:50;;;;;;;9.13;4.03;;;31.50;99.90;;;;;;5061168;28;20632;-72
2021/08/31 12:30:53;;;;;;;14.10;4.45;;;31.40;99.90;;;;;;5056407;28;20187;-75
2021/08/31 12:33:27;;;;;;;12.93;4.90;;;31.30;99.90;;;;;;5027719;28;20205;-75
2021/08/31 12:36:11;;;;;;;11.00;3.90;;;31.10;99.90;;;;;;5035601;28;20191;-73
2021/08/31 12:38:46;;;;;;;14.10;3.83;;;31.30;99.90;;;;;;5056949;28;20578;-73
2021/08/31 12:41:27;;;;;;;8.65;3.70;;;31.40;99.90;;;;;;5060158;28;20178;-73
2021/08/31 12:43:59;;;;;;;10.15;4.55;;;31.30;99.90;;;;;;5055109;28;20171;-73
2021/08/31 12:46:36;;;;;;;14.70;4.90;;;31.10;99.90;;;;;;5058728;28;20201;-74
2021/08/31 12:49:13;;;;;;;7.95;3.67;;;30.90;99.90;;;;;;5042463;28;20193;-73